Terminal Aerodrome Forecast
Issued by NWS

Current Version | Previous Version | Text Only | Print | Product List | Glossary On
Versions: 1 2 3 4 5 6 7 8 9 10 11 12 13 14 15 16 17 18 19 20 21 22 23 24 25 26 27 28 29 30 31
000
FTUS45 KGJT 060529
TAFASE
TAF
KASE 060529Z 0606/0706 17005KT P6SM FEW060 OVC120
     FM061800 32006KT P6SM VCTS SCT060CB BKN090
      TEMPO 0622/0702 VRB15G30KT P6SM TS BKN060CB
     FM070400 21005KT P6SM SCT060 BKN120=

USA.gov is the U.S. government's official web portal to all federal, state and local government web resources and services.